createdAt,value
2023-03-03T00:01:28.604Z,98087.69
2023-03-03T00:03:57.561Z,98089.80
2023-03-03T00:06:27.078Z,98087.92
2023-03-03T00:08:55.001Z,98087.16
2023-03-03T00:11:22.888Z,98085.91
2023-03-03T00:13:53.993Z,98088.02
2023-03-03T00:16:38.242Z,98082.00
2023-03-03T00:19:19.125Z,98086.17
2023-03-03T00:21:49.612Z,98085.41
2023-03-03T00:24:29.962Z,98086.21
2023-03-03T00:27:02.337Z,98088.17
2023-03-03T00:29:48.459Z,98087.61
2023-03-03T00:32:24.225Z,98083.95
2023-03-03T00:34:54.866Z,98079.60
2023-03-03T00:37:34.486Z,98082.27
2023-03-03T00:40:21.780Z,98078.48
2023-03-03T00:42:56.616Z,98068.86
2023-03-03T00:45:44.011Z,98071.40
2023-03-03T00:48:29.410Z,98069.37
2023-03-03T00:50:59.920Z,98069.73
2023-03-03T00:53:31.614Z,98067.23
2023-03-03T00:55:59.579Z,98067.05
2023-03-03T00:58:27.641Z,98061.18
2023-03-03T01:00:59.432Z,98060.29
2023-03-03T01:03:35.526Z,98060.46
2023-03-03T01:06:03.573Z,98063.36
2023-03-03T01:08:33.872Z,98066.21
2023-03-03T01:11:22.754Z,98065.34
2023-03-03T01:13:52.416Z,98062.36
2023-03-03T01:16:21.067Z,98059.64
2023-03-03T01:18:49.151Z,98058.25
2023-03-03T01:21:17.141Z,98053.53
2023-03-03T01:23:45.146Z,98052.80
2023-03-03T01:26:13.103Z,98049.23
2023-03-03T01:28:41.019Z,98045.14
2023-03-03T01:31:09.279Z,98040.67
2023-03-03T01:33:38.302Z,98040.58
2023-03-03T01:36:06.778Z,98038.05
2023-03-03T01:38:38.534Z,98036.39
2023-03-03T01:41:06.917Z,98033.88
2023-03-03T01:43:35.028Z,98030.75
2023-03-03T01:46:03.059Z,98033.45
2023-03-03T01:48:30.913Z,98032.36
2023-03-03T01:51:05.800Z,98034.77
2023-03-03T01:53:39.493Z,98030.46
2023-03-03T01:56:09.896Z,98029.52
2023-03-03T01:58:44.349Z,98028.06
2023-03-03T02:01:16.234Z,98025.70
2023-03-03T02:03:44.253Z,98027.48
2023-03-03T02:06:16.845Z,98027.28
2023-03-03T02:09:19.035Z,98027.45
2023-03-03T02:11:50.683Z,98028.59
2023-03-03T02:14:18.884Z,98030.33
2023-03-03T02:16:46.846Z,98024.86
2023-03-03T02:19:30.321Z,98025.36
2023-03-03T02:21:59.848Z,98025.41
2023-03-03T02:24:35.120Z,98026.62
2023-03-03T02:27:03.629Z,98030.48
2023-03-03T02:29:31.890Z,98033.67
2023-03-03T02:32:00.315Z,98031.86
2023-03-03T02:34:28.296Z,98033.04
2023-03-03T02:36:56.362Z,98036.67
2023-03-03T02:39:27.023Z,98037.70
2023-03-03T02:42:05.421Z,98036.27
2023-03-03T02:44:38.885Z,98031.40
2023-03-03T02:47:06.934Z,98032.31
2023-03-03T02:49:36.562Z,98027.89
2023-03-03T02:52:09.881Z,98023.64
2023-03-03T02:54:38.561Z,98023.45
2023-03-03T02:57:07.347Z,98022.84
2023-03-03T02:59:35.322Z,98022.06
2023-03-03T03:02:09.869Z,98019.11
2023-03-03T03:04:37.897Z,98023.71
2023-03-03T03:07:06.122Z,98027.58
2023-03-03T03:09:35.776Z,98022.88
2023-03-03T03:12:03.955Z,98026.77
2023-03-03T03:14:33.813Z,98022.52
2023-03-03T03:17:01.680Z,98018.61
2023-03-03T03:19:29.999Z,98014.85
2023-03-03T03:22:00.333Z,98016.42
2023-03-03T03:24:28.446Z,98018.75
2023-03-03T03:26:59.941Z,98017.36
2023-03-03T03:29:28.309Z,98013.74
2023-03-03T03:31:56.812Z,98014.48
2023-03-03T03:34:24.912Z,98015.21
2023-03-03T03:36:53.080Z,98014.93
2023-03-03T03:39:22.928Z,98016.44
2023-03-03T03:41:52.028Z,98013.27
2023-03-03T03:44:20.040Z,98013.19
2023-03-03T03:46:48.064Z,98016.77
2023-03-03T03:49:17.586Z,98019.23
2023-03-03T03:51:46.780Z,98010.88
2023-03-03T03:54:16.721Z,98010.31
2023-03-03T03:56:44.954Z,98010.88
2023-03-03T03:59:12.948Z,98008.48
2023-03-03T04:01:41.539Z,98010.34
2023-03-03T04:04:09.516Z,98010.39
2023-03-03T04:06:37.501Z,98011.24
2023-03-03T04:09:06.363Z,98008.86
2023-03-03T04:11:35.031Z,98008.98
2023-03-03T04:14:04.285Z,98006.60
2023-03-03T04:16:33.327Z,98015.39
2023-03-03T04:19:01.280Z,98012.55
2023-03-03T04:21:30.092Z,98017.15
2023-03-03T04:24:00.002Z,98020.09
2023-03-03T04:26:28.735Z,98026.77
2023-03-03T04:28:56.699Z,98024.42
2023-03-03T04:31:26.009Z,98029.27
2023-03-03T04:33:55.191Z,98031.25
2023-03-03T04:36:23.716Z,98031.94
2023-03-03T04:38:51.653Z,98030.72
2023-03-03T04:41:20.107Z,98033.16
2023-03-03T04:43:48.151Z,98027.36
2023-03-03T04:46:16.135Z,98022.42
2023-03-03T04:48:44.133Z,98020.20
2023-03-03T04:51:12.192Z,98019.66
2023-03-03T04:53:40.264Z,98015.36
2023-03-03T04:56:08.981Z,98017.22
2023-03-03T04:58:37.417Z,98030.10
2023-03-03T05:01:06.062Z,98029.61
2023-03-03T05:03:35.439Z,98028.23
2023-03-03T05:06:03.591Z,98023.12
2023-03-03T05:08:31.563Z,98020.41
2023-03-03T05:11:02.616Z,98020.05
2023-03-03T05:13:31.202Z,98022.36
2023-03-03T05:15:59.298Z,98020.90
2023-03-03T05:18:28.065Z,98025.46
2023-03-03T05:20:59.382Z,98022.50
2023-03-03T05:23:29.300Z,98028.51
2023-03-03T05:25:57.925Z,98027.58
2023-03-03T05:28:25.939Z,98030.43
2023-03-03T05:30:54.027Z,98036.89
2023-03-03T05:33:22.143Z,98040.02
2023-03-03T05:35:54.883Z,98044.84
2023-03-03T05:38:24.940Z,98049.36
2023-03-03T05:40:53.252Z,98050.88
2023-03-03T05:43:21.272Z,98053.98
2023-03-03T05:45:59.068Z,98057.77
2023-03-03T05:48:27.896Z,98060.04
2023-03-03T05:50:59.688Z,98062.12
2023-03-03T05:53:29.165Z,98064.33
2023-03-03T05:55:57.722Z,98062.50
2023-03-03T05:58:25.989Z,98066.23
2023-03-03T06:00:54.124Z,98072.00
2023-03-03T06:03:22.204Z,98067.20
2023-03-03T06:05:50.203Z,98070.53
2023-03-03T06:08:18.232Z,98066.98
2023-03-03T06:10:46.127Z,98071.38
2023-03-03T06:13:14.515Z,98075.70
2023-03-03T06:15:42.935Z,98080.58
2023-03-03T06:18:11.025Z,98077.50
2023-03-03T06:20:39.548Z,98080.56
2023-03-03T06:23:07.606Z,98085.77
2023-03-03T06:25:35.830Z,98085.30
2023-03-03T06:28:04.052Z,98086.16
2023-03-03T06:30:32.041Z,98093.73
2023-03-03T06:33:02.171Z,98092.52
2023-03-03T06:35:30.411Z,98083.48
2023-03-03T06:37:58.348Z,98088.71
2023-03-03T06:40:26.393Z,98094.73
2023-03-03T06:42:54.646Z,98096.40
2023-03-03T06:45:22.617Z,98093.58
2023-03-03T06:47:50.679Z,98092.41
2023-03-03T06:50:21.102Z,98090.58
2023-03-03T06:52:49.790Z,98087.40
2023-03-03T06:55:23.624Z,98077.91
2023-03-03T06:57:51.861Z,98074.15
2023-03-03T07:00:25.189Z,98081.81
2023-03-03T07:02:59.540Z,98083.66
2023-03-03T07:05:29.513Z,98080.34
2023-03-03T07:07:57.508Z,98086.06
2023-03-03T07:10:28.924Z,98098.68
2023-03-03T07:13:07.145Z,98094.13
2023-03-03T07:15:36.241Z,98078.11
2023-03-03T07:18:19.808Z,98094.02
2023-03-03T07:20:47.845Z,98067.72
2023-03-03T07:23:25.953Z,98075.39
2023-03-03T07:25:55.350Z,98077.06
2023-03-03T07:28:27.198Z,98079.35
2023-03-03T07:30:57.728Z,98083.70
2023-03-03T07:33:35.229Z,98077.80
2023-03-03T07:36:04.522Z,98072.39
2023-03-03T07:38:40.467Z,98075.42
2023-03-03T07:41:17.550Z,98083.08
2023-03-03T07:44:19.165Z,98087.11
2023-03-03T07:46:48.753Z,98097.13
2023-03-03T07:49:34.715Z,98098.49
2023-03-03T07:52:32.693Z,98095.90
2023-03-03T07:55:03.834Z,98083.64
2023-03-03T07:57:40.098Z,98075.42
2023-03-03T08:00:17.356Z,98070.13
2023-03-03T08:02:52.720Z,98071.24
2023-03-03T08:05:35.006Z,98069.79
2023-03-03T08:08:09.301Z,98071.81
2023-03-03T08:10:47.972Z,98082.55
2023-03-03T08:13:25.082Z,98086.44
2023-03-03T08:16:04.391Z,98095.45
2023-03-03T08:18:46.989Z,98098.39
2023-03-03T08:21:19.248Z,98097.05
2023-03-03T08:23:49.402Z,98084.63
2023-03-03T08:26:22.353Z,98076.20
2023-03-03T08:28:51.346Z,98083.23
2023-03-03T08:31:34.401Z,98089.39
2023-03-03T08:34:07.821Z,98086.64
2023-03-03T08:36:35.737Z,98090.38
2023-03-03T08:39:05.513Z,98098.02
2023-03-03T08:41:33.495Z,98099.30
2023-03-03T08:44:01.414Z,98104.90
2023-03-03T08:46:29.531Z,98107.94
2023-03-03T08:48:57.481Z,98111.95
2023-03-03T08:51:26.714Z,98110.23
2023-03-03T08:53:54.923Z,98113.13
2023-03-03T08:56:22.808Z,98118.92
2023-03-03T08:59:01.655Z,98120.58
2023-03-03T09:01:32.423Z,98120.95
2023-03-03T09:04:00.701Z,98124.77
2023-03-03T09:06:28.705Z,98126.18
2023-03-03T09:09:01.582Z,98125.67
2023-03-03T09:11:30.056Z,98117.27
2023-03-03T09:14:18.400Z,98116.04
2023-03-03T09:16:56.960Z,98113.51
2023-03-03T09:19:25.017Z,98115.65
2023-03-03T09:21:57.624Z,98111.23
2023-03-03T09:24:30.986Z,98117.19
2023-03-03T09:26:59.756Z,98115.77
2023-03-03T09:29:30.991Z,98111.79
2023-03-03T09:32:02.495Z,98115.57
2023-03-03T09:34:43.494Z,98114.91
2023-03-03T09:37:28.478Z,98115.65
2023-03-03T09:40:19.827Z,98117.06
2023-03-03T09:43:09.725Z,98117.52
2023-03-03T09:46:04.310Z,98127.39
2023-03-03T09:48:53.255Z,98131.42
2023-03-03T09:51:36.185Z,98129.45
2023-03-03T09:54:27.868Z,98126.27
2023-03-03T09:57:11.245Z,98114.46
2023-03-03T10:00:08.331Z,98116.84
2023-03-03T10:03:13.935Z,98126.80
2023-03-03T10:05:41.883Z,98135.42
2023-03-03T10:08:22.432Z,98143.77
2023-03-03T10:11:02.614Z,98144.35
2023-03-03T10:13:56.285Z,98147.70
2023-03-03T10:17:44.124Z,98152.23
2023-03-03T10:20:52.777Z,98151.32
2023-03-03T10:23:41.571Z,98142.84
2023-03-03T10:26:44.848Z,98142.74
2023-03-03T10:29:34.211Z,98148.77
2023-03-03T10:32:49.850Z,98147.30
2023-03-03T10:35:47.152Z,98146.25
2023-03-03T10:38:27.826Z,98147.54
2023-03-03T10:41:23.024Z,98145.08
2023-03-03T10:43:53.531Z,98156.77
2023-03-03T10:46:50.851Z,98155.46
2023-03-03T10:49:43.388Z,98159.89
2023-03-03T10:52:38.931Z,98162.05
2023-03-03T10:55:22.070Z,98160.10
2023-03-03T10:57:56.693Z,98159.66
2023-03-03T11:00:50.912Z,98158.00
2023-03-03T11:03:46.819Z,98159.52
2023-03-03T11:06:25.338Z,98160.09
2023-03-03T11:08:59.786Z,98161.36
2023-03-03T11:11:43.830Z,98164.66
2023-03-03T11:14:22.243Z,98164.13
2023-03-03T11:17:01.453Z,98157.71
2023-03-03T11:19:40.582Z,98149.77
2023-03-03T11:22:08.746Z,98147.71
2023-03-03T11:24:50.538Z,98145.78
2023-03-03T11:27:29.963Z,98145.31
2023-03-03T11:30:35.579Z,98146.02
2023-03-03T11:33:05.260Z,98146.55
2023-03-03T11:35:50.800Z,98143.45
2023-03-03T11:39:14.255Z,98149.66
2023-03-03T11:41:51.276Z,98148.70
2023-03-03T11:44:22.939Z,98140.11
2023-03-03T11:47:14.214Z,98139.39
2023-03-03T11:50:00.868Z,98140.69
2023-03-03T11:53:01.454Z,98142.47
2023-03-03T11:55:41.690Z,98150.02
2023-03-03T11:58:41.202Z,98145.27
2023-03-03T12:01:15.171Z,98148.14
2023-03-03T12:03:56.691Z,98140.80
2023-03-03T12:06:46.564Z,98140.71
2023-03-03T12:09:37.654Z,98146.42
2023-03-03T12:12:32.983Z,98143.25
2023-03-03T12:15:03.943Z,98144.45
2023-03-03T12:17:39.946Z,98136.64
2023-03-03T12:20:32.974Z,98135.05
2023-03-03T12:23:18.186Z,98134.40
2023-03-03T12:26:06.155Z,98136.12
2023-03-03T12:28:53.785Z,98133.64
2023-03-03T12:31:44.233Z,98133.07
2023-03-03T12:34:26.112Z,98131.38
2023-03-03T12:37:12.742Z,98127.25
2023-03-03T12:40:08.666Z,98125.95
2023-03-03T12:42:49.236Z,98125.81
2023-03-03T12:45:42.247Z,98131.48
2023-03-03T12:48:21.473Z,98122.25
2023-03-03T12:51:11.140Z,98122.10
2023-03-03T12:53:57.610Z,98119.46
2023-03-03T12:56:38.624Z,98114.86
2023-03-03T12:59:28.318Z,98108.73
2023-03-03T13:02:09.154Z,98113.44
2023-03-03T13:04:47.229Z,98115.47
2023-03-03T13:07:22.175Z,98111.95
2023-03-03T13:10:03.019Z,98106.54
2023-03-03T13:12:44.773Z,98104.37
2023-03-03T13:15:18.504Z,98105.55
2023-03-03T13:18:04.115Z,98097.30
2023-03-03T13:20:48.594Z,98096.88
2023-03-03T13:23:38.513Z,98099.56
2023-03-03T13:26:35.998Z,98101.90
2023-03-03T13:29:16.111Z,98102.20
2023-03-03T13:31:52.501Z,98109.41
2023-03-03T13:34:35.268Z,98106.70
2023-03-03T13:37:24.727Z,98108.23
2023-03-03T13:40:19.686Z,98102.70
2023-03-03T13:42:56.127Z,98106.50
2023-03-03T13:45:27.108Z,98107.19
2023-03-03T13:48:13.518Z,98102.40
2023-03-03T13:50:50.360Z,98108.50
2023-03-03T13:53:21.282Z,98106.70
2023-03-03T13:56:01.669Z,98107.18
2023-03-03T13:58:43.985Z,98105.08
2023-03-03T14:01:14.742Z,98107.04
2023-03-03T14:04:14.050Z,98106.48
2023-03-03T14:06:53.680Z,98102.02
2023-03-03T14:09:44.159Z,98100.00
2023-03-03T14:12:29.309Z,98095.42
2023-03-03T14:15:17.423Z,98096.48
2023-03-03T14:18:11.871Z,98098.33
2023-03-03T14:20:43.485Z,98096.64
2023-03-03T14:23:19.260Z,98095.08
2023-03-03T14:26:09.890Z,98087.64
2023-03-03T14:28:47.267Z,98083.64
2023-03-03T14:31:39.026Z,98089.15
2023-03-03T14:34:36.399Z,98084.85
2023-03-03T14:37:42.945Z,98092.90
2023-03-03T14:40:32.537Z,98093.81
2023-03-03T14:43:02.348Z,98096.61
2023-03-03T14:45:42.974Z,98095.34
2023-03-03T14:48:13.841Z,98090.17
2023-03-03T14:50:48.621Z,98096.57
2023-03-03T14:53:19.761Z,98088.15
2023-03-03T14:55:52.915Z,98085.44
2023-03-03T14:58:40.834Z,98089.29
2023-03-03T15:01:23.669Z,98089.27
2023-03-03T15:04:05.146Z,98087.14
2023-03-03T15:07:25.268Z,98084.09
2023-03-03T15:09:53.321Z,98083.51
2023-03-03T15:12:25.062Z,98079.66
2023-03-03T15:15:11.597Z,98082.17
2023-03-03T15:17:54.201Z,98084.14
2023-03-03T15:20:44.411Z,98084.38
2023-03-03T15:23:19.801Z,98080.77
2023-03-03T15:25:58.822Z,98078.23
2023-03-03T15:29:01.902Z,98076.17
2023-03-03T15:31:45.763Z,98071.56
2023-03-03T15:34:38.761Z,98070.63
2023-03-03T15:37:42.172Z,98077.92
2023-03-03T15:40:30.298Z,98084.81
2023-03-03T15:43:13.836Z,98078.77
2023-03-03T15:45:47.032Z,98073.38
2023-03-03T15:48:40.029Z,98073.99
2023-03-03T15:51:25.374Z,98074.04
2023-03-03T15:54:23.624Z,98077.83
2023-03-03T15:56:58.356Z,98079.98
2023-03-03T15:59:53.018Z,98079.30
2023-03-03T16:02:25.117Z,98074.36
2023-03-03T16:05:15.286Z,98075.80
2023-03-03T16:07:57.388Z,98080.91
2023-03-03T16:10:40.269Z,98075.02
2023-03-03T16:13:12.259Z,98081.67
2023-03-03T16:15:57.743Z,98088.63
2023-03-03T16:18:48.113Z,98085.83
2023-03-03T16:21:34.119Z,98082.20
2023-03-03T16:24:30.968Z,98083.19
2023-03-03T16:27:11.205Z,98087.24
2023-03-03T16:29:57.871Z,98090.10
2023-03-03T16:32:44.331Z,98092.04
2023-03-03T16:35:25.951Z,98098.03
2023-03-03T16:38:03.501Z,98099.39
2023-03-03T16:40:46.234Z,98100.71
2023-03-03T16:43:36.895Z,98103.25
2023-03-03T16:46:38.261Z,98107.20
2023-03-03T16:49:34.598Z,98113.64
2023-03-03T16:52:14.347Z,98113.67
2023-03-03T16:55:08.695Z,98112.75
2023-03-03T16:58:14.392Z,98107.73
2023-03-03T17:01:02.508Z,98106.55
2023-03-03T17:03:52.379Z,98107.69
2023-03-03T17:07:37.002Z,98107.31
2023-03-03T17:10:25.306Z,98110.59
2023-03-03T17:13:15.767Z,98113.86
2023-03-03T17:16:00.221Z,98108.54
2023-03-03T17:18:54.387Z,98100.05
2023-03-03T17:21:25.793Z,98103.99
2023-03-03T17:23:59.686Z,98106.13
2023-03-03T17:26:28.754Z,98107.99
2023-03-03T17:29:26.728Z,98104.38
2023-03-03T17:32:03.965Z,98106.60
2023-03-03T17:34:53.114Z,98108.94
2023-03-03T17:37:54.477Z,98112.19
2023-03-03T17:40:22.730Z,98113.93
2023-03-03T17:43:16.910Z,98117.59
2023-03-03T17:47:48.570Z,98113.35
2023-03-03T17:51:14.600Z,98112.80
2023-03-03T17:55:11.464Z,98117.05
2023-03-03T18:03:23.036Z,98117.14
2023-03-03T18:06:09.502Z,98115.80
2023-03-03T18:09:13.739Z,98117.60
2023-03-03T18:11:58.378Z,98116.14
2023-03-03T18:14:45.196Z,98118.51
2023-03-03T18:17:36.565Z,98120.46
2023-03-03T18:20:13.700Z,98120.67
2023-03-03T18:22:51.465Z,98117.05
2023-03-03T18:25:21.971Z,98119.50
2023-03-03T18:28:20.727Z,98121.12
2023-03-03T18:31:00.627Z,98121.95
2023-03-03T18:33:44.072Z,98106.14
2023-03-03T18:36:27.544Z,98118.81
2023-03-03T18:38:57.648Z,98111.45
2023-03-03T18:41:28.084Z,98114.84
2023-03-03T18:44:04.848Z,98123.48
2023-03-03T18:46:35.701Z,98119.21
2023-03-03T18:49:05.201Z,98116.82
2023-03-03T18:51:39.303Z,98115.51
2023-03-03T18:54:14.401Z,98117.25
2023-03-03T18:56:44.396Z,98114.64
2023-03-03T18:59:35.218Z,98111.04
2023-03-03T19:02:18.477Z,98104.86
2023-03-03T19:05:07.442Z,98105.02
2023-03-03T19:07:40.382Z,98107.59
2023-03-03T19:10:44.370Z,98102.67
2023-03-03T19:13:34.093Z,98098.96
2023-03-03T19:16:12.013Z,98095.98
2023-03-03T19:18:42.903Z,98099.85
2023-03-03T19:21:11.017Z,98096.29
2023-03-03T19:24:02.693Z,98090.34
2023-03-03T19:27:09.576Z,98092.93
2023-03-03T19:29:48.059Z,98091.38
2023-03-03T19:32:48.660Z,98089.12
2023-03-03T19:35:42.687Z,98092.33
2023-03-03T19:38:20.502Z,98096.38
2023-03-03T19:41:10.265Z,98094.89
2023-03-03T19:44:09.295Z,98096.69
2023-03-03T19:46:53.903Z,98096.81
2023-03-03T19:49:28.210Z,98094.52
2023-03-03T19:52:02.932Z,98094.69
2023-03-03T19:54:44.815Z,98095.72
2023-03-03T19:58:02.118Z,98085.64
2023-03-03T20:00:44.080Z,98094.36
2023-03-03T20:03:44.234Z,98094.59
2023-03-03T20:06:29.324Z,98091.86
2023-03-03T20:09:14.182Z,98097.21
2023-03-03T20:11:59.154Z,98091.45
2023-03-03T20:14:27.107Z,98086.98
2023-03-03T20:17:12.284Z,98084.13
2023-03-03T20:20:04.281Z,98086.30
2023-03-03T20:23:00.310Z,98086.33
2023-03-03T20:25:46.235Z,98081.70
2023-03-03T20:29:08.588Z,98085.03
2023-03-03T20:32:13.582Z,98085.92
2023-03-03T20:34:41.839Z,98084.48
2023-03-03T20:37:20.610Z,98084.50
2023-03-03T20:40:16.492Z,98079.79
2023-03-03T20:43:09.131Z,98080.95
2023-03-03T20:46:02.278Z,98081.85
2023-03-03T20:49:04.469Z,98082.49
2023-03-03T20:51:41.476Z,98083.13
2023-03-03T20:54:32.528Z,98083.48
2023-03-03T20:57:34.991Z,98084.46
2023-03-03T21:00:15.817Z,98082.86
2023-03-03T21:02:52.942Z,98082.83
2023-03-03T21:05:22.988Z,98074.35
2023-03-03T21:08:02.393Z,98076.04
2023-03-03T21:10:35.580Z,98074.59
2023-03-03T21:13:29.656Z,98070.92
2023-03-03T21:16:11.277Z,98066.66
2023-03-03T21:18:39.823Z,98066.17
2023-03-03T21:21:08.884Z,98060.58
2023-03-03T21:23:36.903Z,98061.54
2023-03-03T21:26:05.121Z,98057.21
2023-03-03T21:28:34.928Z,98053.11
2023-03-03T21:31:16.004Z,98047.03
2023-03-03T21:33:48.745Z,98045.55
2023-03-03T21:36:36.889Z,98041.01
2023-03-03T21:39:29.128Z,98040.52
2023-03-03T21:42:09.320Z,98035.48
2023-03-03T21:44:37.315Z,98036.60
2023-03-03T21:47:08.207Z,98030.84
2023-03-03T21:49:40.533Z,98031.88
2023-03-03T21:52:09.300Z,98032.30
2023-03-03T21:54:37.245Z,98032.48
2023-03-03T21:57:05.616Z,98031.05
2023-03-03T21:59:33.731Z,98025.89
2023-03-03T22:02:01.660Z,98025.46
2023-03-03T22:04:29.953Z,98019.76
2023-03-03T22:06:58.152Z,98020.77
2023-03-03T22:09:26.617Z,98009.77
2023-03-03T22:11:54.629Z,98010.10
2023-03-03T22:14:22.824Z,98008.36
2023-03-03T22:16:50.746Z,98008.42
2023-03-03T22:19:18.721Z,98001.52
2023-03-03T22:21:47.393Z,97999.79
2023-03-03T22:24:15.414Z,97996.42
2023-03-03T22:26:43.414Z,97986.48
2023-03-03T22:29:11.433Z,97984.02
2023-03-03T22:31:39.579Z,97985.96
2023-03-03T22:34:07.697Z,97978.09
2023-03-03T22:36:35.621Z,97973.15
2023-03-03T22:39:03.727Z,97972.60
2023-03-03T22:41:31.963Z,97971.73
2023-03-03T22:44:00.058Z,97971.30
2023-03-03T22:46:28.126Z,97968.92
2023-03-03T22:48:56.089Z,97965.37
2023-03-03T22:51:24.063Z,97964.58
2023-03-03T22:53:52.055Z,97961.45
2023-03-03T22:56:19.933Z,97961.39
2023-03-03T22:58:48.397Z,97962.57
2023-03-03T23:01:16.242Z,97965.66
2023-03-03T23:03:44.125Z,97969.45
2023-03-03T23:06:12.036Z,97959.06
2023-03-03T23:08:40.012Z,97961.12
2023-03-03T23:11:08.447Z,97966.92
2023-03-03T23:13:36.384Z,97957.11
2023-03-03T23:16:04.848Z,97954.79
2023-03-03T23:18:32.788Z,97947.11
2023-03-03T23:21:00.673Z,97942.69
2023-03-03T23:23:30.717Z,97939.38
2023-03-03T23:25:58.809Z,97931.86
2023-03-03T23:28:26.770Z,97932.91
2023-03-03T23:30:54.726Z,97933.08
2023-03-03T23:33:23.083Z,97938.73
2023-03-03T23:35:51.049Z,97931.55
2023-03-03T23:38:18.943Z,97921.84
2023-03-03T23:40:47.097Z,97918.88
2023-03-03T23:43:15.165Z,97922.08
2023-03-03T23:45:43.113Z,97920.52
2023-03-03T23:48:11.090Z,97921.05
2023-03-03T23:50:39.405Z,97916.73
2023-03-03T23:53:08.519Z,97916.43
2023-03-03T23:55:37.736Z,97915.83
2023-03-03T23:58:05.972Z,97910.39
